Time;durP1;ratioP1;P1;durP2;ratioP2;P2;SDS_P1;SDS_P2;PMS_P1;PMS_P2;Temp;Humidity;BMP_temperature;BMP_pressure;BME280_temperature;BME280_humidity;BME280_pressure;Samples;Min_cycle;Max_cycle;Signal;HPM_P1;HPM_P2
2022/12/12 00:01:54;;;;;;;8.87;7.97;;;4.20;70.50;3.70;95509.00;;;;5107530;28;20456;-80
2022/12/12 00:04:22;;;;;;;8.80;7.80;;;4.20;70.20;3.70;95504.00;;;;5107491;28;20563;-81
2022/12/12 00:06:49;;;;;;;10.90;8.57;;;4.20;70.30;3.70;95509.00;;;;5109857;28;20443;-80
2022/12/12 00:09:17;;;;;;;11.10;9.73;;;4.20;70.40;3.70;95505.00;;;;5107482;28;20455;-80
2022/12/12 00:11:44;;;;;;;9.73;7.73;;;4.20;70.50;3.70;95502.00;;;;5108861;28;20436;-81
2022/12/12 00:14:11;;;;;;;11.87;8.63;;;4.20;70.40;3.70;95506.00;;;;5108140;28;20570;-80
2022/12/12 00:16:38;;;;;;;9.83;8.53;;;4.20;70.50;3.70;95505.00;;;;5105483;28;20551;-82
2022/12/12 00:19:05;;;;;;;9.93;8.30;;;4.20;70.30;3.60;95511.00;;;;5108203;28;20463;-80
2022/12/12 00:21:34;;;;;;;10.13;9.03;;;4.20;70.30;3.60;95511.00;;;;5107965;28;20472;-81
2022/12/12 00:24:01;;;;;;;10.70;8.83;;;4.20;70.30;3.60;95503.00;;;;5107822;28;20492;-80
2022/12/12 00:26:32;;;;;;;13.30;9.33;;;4.20;70.20;3.60;95506.00;;;;5107534;28;20551;-79
2022/12/12 00:29:01;;;;;;;12.80;9.17;;;4.20;70.20;3.60;95506.00;;;;5108584;28;20482;-80
2022/12/12 00:31:29;;;;;;;11.80;9.27;;;4.10;70.20;3.60;95508.00;;;;5103846;28;20486;-80
2022/12/12 00:33:56;;;;;;;9.23;7.80;;;4.10;70.30;3.60;95511.00;;;;5107134;28;20601;-80
2022/12/12 00:36:26;;;;;;;10.37;8.13;;;4.10;70.40;3.60;95514.00;;;;5103210;28;20499;-81
2022/12/12 00:38:55;;;;;;;9.60;7.53;;;4.10;70.40;3.60;95510.00;;;;5105996;28;20471;-80
2022/12/12 00:41:24;;;;;;;9.13;7.60;;;4.10;70.30;3.60;95511.00;;;;5107737;28;20436;-81
2022/12/12 00:43:51;;;;;;;9.43;8.17;;;4.10;70.10;3.60;95522.00;;;;5107339;28;20983;-82
2022/12/12 00:46:21;;;;;;;10.30;8.80;;;4.10;70.30;3.60;95523.00;;;;5107433;28;20535;-82
2022/12/12 00:48:49;;;;;;;9.30;8.33;;;4.10;70.10;3.50;95520.00;;;;5105198;28;20511;-80
2022/12/12 00:51:20;;;;;;;10.30;9.17;;;4.10;70.00;3.50;95522.00;;;;5107975;28;20520;-80
2022/12/12 00:53:49;;;;;;;10.13;8.50;;;4.10;70.00;3.50;95512.00;;;;5107311;28;20464;-82
2022/12/12 00:56:20;;;;;;;12.13;9.13;;;4.10;70.00;3.50;95517.00;;;;5107598;28;20436;-81
2022/12/12 00:58:48;;;;;;;9.50;7.47;;;4.10;70.10;3.50;95514.00;;;;5105735;28;20504;-82
2022/12/12 01:01:18;;;;;;;9.90;8.33;;;4.10;70.00;3.50;95518.00;;;;5106587;28;21007;-81
2022/12/12 01:03:46;;;;;;;9.03;8.07;;;4.10;70.00;3.50;95510.00;;;;5106087;28;21011;-80
2022/12/12 01:06:13;;;;;;;9.03;8.13;;;4.10;70.10;3.50;95517.00;;;;5104175;28;20517;-80
2022/12/12 01:08:42;;;;;;;9.27;8.20;;;4.00;70.10;3.50;95516.00;;;;5106316;28;20647;-81
2022/12/12 01:11:11;;;;;;;10.17;8.20;;;4.00;70.10;3.50;95521.00;;;;5105895;28;20547;-81
2022/12/12 01:13:42;;;;;;;9.37;8.07;;;4.00;70.10;3.50;95522.00;;;;5106214;28;20465;-80
2022/12/12 01:16:10;;;;;;;9.87;8.33;;;4.00;70.20;3.50;95518.00;;;;5105525;28;20448;-82
2022/12/12 01:18:38;;;;;;;11.30;8.67;;;4.00;70.20;3.50;95530.00;;;;5105437;28;20476;-80
2022/12/12 01:21:09;;;;;;;11.67;8.90;;;4.00;69.90;3.50;95525.00;;;;5103400;28;20499;-81
2022/12/12 01:23:37;;;;;;;10.50;8.57;;;4.00;69.70;3.40;95519.00;;;;5104368;28;20531;-80
2022/12/12 01:26:09;;;;;;;10.80;8.40;;;4.00;69.70;3.40;95527.00;;;;5105652;28;20486;-80
2022/12/12 01:28:37;;;;;;;11.17;8.57;;;4.00;69.60;3.40;95520.00;;;;5107573;28;20614;-80
2022/12/12 01:31:07;;;;;;;9.83;8.63;;;4.00;69.80;3.40;95520.00;;;;5107694;28;20491;-81
2022/12/12 01:33:34;;;;;;;9.47;8.30;;;4.00;69.90;3.40;95522.00;;;;5107042;28;20468;-81
2022/12/12 01:36:01;;;;;;;10.10;8.23;;;3.90;69.80;3.40;95519.00;;;;5103770;28;20496;-81
2022/12/12 01:38:28;;;;;;;13.10;8.60;;;3.90;70.00;3.40;95532.00;;;;5105249;28;20448;-81
2022/12/12 01:40:56;;;;;;;9.43;7.83;;;3.90;70.10;3.40;95525.00;;;;5103947;28;20533;-81
2022/12/12 01:43:25;;;;;;;10.87;8.83;;;3.90;70.00;3.40;95528.00;;;;5106860;28;20531;-80
2022/12/12 01:46:40;;;;;;;11.87;8.93;;;3.90;70.00;3.40;95522.00;;;;5107951;28;20452;-82
2022/12/12 01:49:19;;;;;;;11.63;8.27;;;3.90;69.50;3.30;95526.00;;;;5110259;28;21013;-81
2022/12/12 01:51:49;;;;;;;8.67;7.77;;;3.90;69.60;3.30;95529.00;;;;5107089;28;21024;-81
2022/12/12 01:54:24;;;;;;;9.47;8.10;;;3.90;69.80;3.30;95525.00;;;;5108215;28;20543;-81
2022/12/12 01:56:54;;;;;;;10.37;8.10;;;3.90;69.60;3.30;95525.00;;;;5108159;28;20456;-83
2022/12/12 01:59:25;;;;;;;9.77;8.40;;;3.90;69.50;3.30;95537.00;;;;5108861;28;20448;-81
2022/12/12 02:01:55;;;;;;;11.73;8.80;;;3.90;69.70;3.30;95533.00;;;;5108031;28;20516;-80
2022/12/12 02:04:23;;;;;;;10.23;8.37;;;3.80;69.60;3.30;95532.00;;;;5109613;28;20465;-80
2022/12/12 02:06:52;;;;;;;10.73;8.17;;;3.80;69.80;3.30;95537.00;;;;5110347;28;20557;-80
2022/12/12 02:09:22;;;;;;;10.50;9.10;;;3.80;69.90;3.30;95541.00;;;;5108638;28;20515;-80
2022/12/12 02:11:53;;;;;;;9.27;7.97;;;3.80;70.00;3.30;95538.00;;;;5109284;28;20849;-82
2022/12/12 02:14:26;;;;;;;9.60;8.60;;;3.80;70.20;3.30;95538.00;;;;5110745;28;20456;-80
2022/12/12 02:17:33;;;;;;;11.00;8.47;;;3.80;70.20;3.30;95537.00;;;;5110821;28;20456;-80
2022/12/12 02:20:48;;;;;;;9.17;7.83;;;3.90;70.20;3.30;95547.00;;;;5108329;28;20547;-80
2022/12/12 02:23:51;;;;;;;10.60;8.40;;;3.90;70.30;3.30;95546.00;;;;5110007;28;20521;-81
2022/12/12 02:27:13;;;;;;;9.90;8.17;;;3.90;70.30;3.40;95549.00;;;;5074759;28;20998;-81
2022/12/12 02:30:08;;;;;;;10.57;8.53;;;3.90;70.20;3.40;95547.00;;;;5111188;28;20970;-83
2022/12/12 02:33:18;;;;;;;10.33;8.37;;;3.90;70.10;3.40;95549.00;;;;5110386;28;21034;-83
2022/12/12 02:36:00;;;;;;;10.40;8.93;;;3.90;70.10;3.40;95543.00;;;;5109595;28;20795;-81
2022/12/12 02:38:38;;;;;;;9.27;8.27;;;3.90;70.00;3.30;95545.00;;;;5108553;28;20458;-80
2022/12/12 02:41:17;;;;;;;9.30;7.57;;;3.90;69.90;3.30;95549.00;;;;5108934;28;21133;-81
2022/12/12 02:44:00;;;;;;;9.07;7.90;;;3.90;69.80;3.30;95548.00;;;;5107201;28;20591;-81
2022/12/12 02:46:36;;;;;;;9.87;8.00;;;3.90;69.90;3.30;95549.00;;;;5109141;28;20467;-80
2022/12/12 02:49:13;;;;;;;9.67;8.17;;;3.90;70.00;3.30;95547.00;;;;5108493;28;20511;-80
2022/12/12 02:51:42;;;;;;;8.67;7.77;;;3.90;70.50;3.30;95543.00;;;;5109231;28;20472;-81
2022/12/12 02:54:15;;;;;;;9.97;8.03;;;3.90;69.60;3.30;95560.00;;;;5108494;28;20913;-80
2022/12/12 02:56:49;;;;;;;10.70;8.60;;;3.90;69.80;3.30;95555.00;;;;5106963;28;20555;-81
2022/12/12 02:59:23;;;;;;;9.27;8.27;;;3.90;69.80;3.30;95547.00;;;;5109906;28;20531;-82
2022/12/12 03:02:32;;;;;;;9.03;8.10;;;3.80;69.50;3.30;95545.00;;;;5108474;28;20525;-81
2022/12/12 03:08:37;;;;;;;9.20;8.20;;;3.90;69.70;3.30;95551.00;;;;5108588;28;20507;-81
2022/12/12 03:11:09;;;;;;;9.30;8.37;;;3.80;69.60;3.30;95552.00;;;;5108827;28;20529;-80
2022/12/12 03:13:50;;;;;;;8.47;7.57;;;3.80;69.70;3.30;95559.00;;;;5106499;28;20541;-80
2022/12/12 03:16:28;;;;;;;9.03;7.30;;;3.80;69.80;3.30;95555.00;;;;5108654;28;20528;-81
2022/12/12 03:19:05;;;;;;;9.80;7.90;;;3.80;69.70;3.30;95557.00;;;;5107102;28;20808;-80
2022/12/12 03:21:44;;;;;;;9.87;7.83;;;3.80;69.70;3.30;95556.00;;;;5108302;28;20523;-81
2022/12/12 03:24:20;;;;;;;10.63;8.53;;;3.80;69.80;3.30;95567.00;;;;5107387;28;20578;-80
2022/12/12 03:26:54;;;;;;;9.47;8.13;;;3.80;69.80;3.30;95559.00;;;;5106736;28;20439;-81
2022/12/12 03:29:28;;;;;;;10.43;8.43;;;3.80;69.60;3.20;95563.00;;;;5105590;28;20476;-81
2022/12/12 03:32:02;;;;;;;9.43;8.30;;;3.80;69.70;3.20;95561.00;;;;5107666;28;20519;-80
2022/12/12 03:34:37;;;;;;;10.90;8.90;;;3.80;69.80;3.20;95564.00;;;;5106454;28;20519;-81
2022/12/12 03:37:11;;;;;;;8.90;7.60;;;3.80;69.80;3.20;95563.00;;;;5108314;28;20476;-80
2022/12/12 03:39:45;;;;;;;10.90;8.23;;;3.80;69.80;3.20;95571.00;;;;5107651;28;20523;-80
2022/12/12 03:42:21;;;;;;;9.93;8.73;;;3.80;70.00;3.20;95569.00;;;;5103519;28;20555;-80
2022/12/12 03:44:53;;;;;;;8.50;7.67;;;3.80;70.00;3.20;95572.00;;;;5110953;28;20494;-81
2022/12/12 03:47:28;;;;;;;10.20;8.27;;;3.80;70.00;3.30;95569.00;;;;5110184;28;20978;-80
2022/12/12 03:50:06;;;;;;;10.00;8.30;;;3.80;70.20;3.30;95575.00;;;;5113783;28;20570;-82
2022/12/12 03:52:41;;;;;;;11.20;8.83;;;3.80;70.30;3.30;95580.00;;;;5113265;28;20487;-82
2022/12/12 03:55:14;;;;;;;9.63;8.60;;;3.80;70.30;3.30;95576.00;;;;5114004;28;20491;-82
2022/12/12 03:57:49;;;;;;;10.07;8.20;;;3.80;70.90;3.30;95581.00;;;;5114013;28;20432;-80
2022/12/12 04:00:17;;;;;;;8.83;7.70;;;3.80;70.10;3.30;95579.00;;;;5113173;28;20472;-80
2022/12/12 04:02:53;;;;;;;10.70;7.93;;;3.80;70.30;3.30;95573.00;;;;5113820;28;20488;-81
2022/12/12 04:05:27;;;;;;;9.20;8.03;;;3.80;70.30;3.30;95572.00;;;;5109423;28;20555;-80
2022/12/12 04:08:08;;;;;;;10.03;7.77;;;3.70;70.30;3.20;95573.00;;;;5107771;28;20445;-80
2022/12/12 04:13:38;;;;;;;7.77;6.23;;;3.80;70.80;3.30;95560.00;;;;5105935;28;20549;-80
2022/12/12 04:16:11;;;;;;;6.93;6.23;;;3.80;70.50;3.20;95558.00;;;;5104481;28;20547;-80
2022/12/12 04:18:51;;;;;;;5.90;5.30;;;3.80;70.40;3.20;95566.00;;;;5107356;28;20484;-80
2022/12/12 04:24:30;;;;;;;5.47;4.60;;;3.80;70.20;3.20;95570.00;;;;5106972;28;20969;-80
2022/12/12 04:27:06;;;;;;;5.70;5.13;;;3.80;70.20;3.20;95568.00;;;;5105749;28;21018;-80
2022/12/12 04:29:42;;;;;;;5.30;4.80;;;3.80;70.40;3.20;95569.00;;;;5107688;28;20540;-80
2022/12/12 04:32:20;;;;;;;5.37;4.80;;;3.80;70.40;3.20;95573.00;;;;5106942;28;20543;-80
2022/12/12 04:34:55;;;;;;;5.93;5.33;;;3.80;70.30;3.20;95576.00;;;;5109283;28;20499;-80
2022/12/12 04:37:27;;;;;;;6.07;5.43;;;3.70;70.20;3.20;95572.00;;;;5106990;28;20537;-80
2022/12/12 04:39:59;;;;;;;6.47;5.87;;;3.70;70.20;3.20;95581.00;;;;5108602;28;21370;-82
2022/12/12 04:42:32;;;;;;;7.80;6.13;;;3.70;70.20;3.20;95583.00;;;;5106459;28;21385;-81
2022/12/12 04:45:07;;;;;;;7.20;5.97;;;3.70;70.20;3.20;95579.00;;;;5106369;28;20833;-80
2022/12/12 04:47:39;;;;;;;7.70;6.37;;;3.70;70.20;3.20;95578.00;;;;5107750;28;20512;-82
2022/12/12 04:50:10;;;;;;;9.17;7.07;;;3.70;70.10;3.20;95580.00;;;;5105463;28;20630;-79
2022/12/12 04:52:39;;;;;;;8.97;7.73;;;3.70;70.10;3.20;95573.00;;;;5109578;28;20508;-80
2022/12/12 04:55:15;;;;;;;9.77;7.93;;;3.70;70.00;3.20;95581.00;;;;5106320;28;20508;-82
2022/12/12 04:57:49;;;;;;;10.20;8.50;;;3.70;70.10;3.20;95581.00;;;;5105673;28;20504;-79
2022/12/12 05:00:18;;;;;;;8.83;7.90;;;3.70;69.90;3.20;95582.00;;;;5105424;28;20539;-81
2022/12/12 05:02:57;;;;;;;10.13;8.37;;;3.70;69.70;3.20;95584.00;;;;5103738;28;20490;-81
2022/12/12 05:05:33;;;;;;;10.00;8.33;;;3.70;69.90;3.20;95585.00;;;;5107903;28;20983;-81
2022/12/12 05:08:07;;;;;;;10.27;8.60;;;3.70;69.90;3.20;95587.00;;;;5109878;28;20464;-79
2022/12/12 05:10:43;;;;;;;9.30;8.30;;;3.70;69.90;3.20;95597.00;;;;5104465;28;20923;-83
2022/12/12 05:13:17;;;;;;;9.50;8.17;;;3.70;69.90;3.20;95599.00;;;;5110437;28;20432;-80
2022/12/12 05:15:46;;;;;;;9.70;8.33;;;3.70;69.90;3.20;95592.00;;;;5112128;28;20454;-82
2022/12/12 05:18:14;;;;;;;9.50;8.50;;;3.70;69.90;3.10;95590.00;;;;5113087;28;20493;-79
2022/12/12 05:20:41;;;;;;;9.97;8.70;;;3.70;69.70;3.10;95592.00;;;;5118085;28;20445;-82
2022/12/12 05:23:08;;;;;;;10.17;7.97;;;3.70;69.70;3.10;95601.00;;;;5114112;28;20459;-80
2022/12/12 05:25:37;;;;;;;10.13;8.73;;;3.70;69.70;3.10;95588.00;;;;5111891;28;21305;-81
2022/12/12 05:28:04;;;;;;;9.80;8.03;;;3.70;69.80;3.10;95597.00;;;;5113092;28;21568;-80
2022/12/12 05:30:31;;;;;;;10.63;8.83;;;3.70;69.70;3.10;95601.00;;;;5112712;28;20490;-80
2022/12/12 05:32:58;;;;;;;11.50;8.73;;;3.70;69.60;3.10;95593.00;;;;5110874;28;20519;-80
2022/12/12 05:35:26;;;;;;;10.03;8.27;;;3.70;69.70;3.10;95595.00;;;;5110962;28;20456;-81
2022/12/12 05:37:53;;;;;;;9.43;7.90;;;3.60;69.40;3.00;95588.00;;;;5111520;28;20476;-80
2022/12/12 05:40:21;;;;;;;9.63;8.13;;;3.60;69.20;3.00;95596.00;;;;5111102;28;20444;-80
2022/12/12 05:42:50;;;;;;;12.07;8.43;;;3.60;69.20;3.00;95605.00;;;;5109372;28;20452;-81
2022/12/12 05:45:17;;;;;;;9.67;7.97;;;3.60;69.30;3.00;95599.00;;;;5108169;28;20448;-80
2022/12/12 05:47:44;;;;;;;9.67;8.30;;;3.60;69.40;3.00;95604.00;;;;5105519;28;20531;-80
2022/12/12 05:50:11;;;;;;;10.23;8.33;;;3.60;69.40;3.00;95599.00;;;;5110898;28;20476;-80
2022/12/12 05:52:39;;;;;;;9.37;8.00;;;3.60;69.50;3.00;95606.00;;;;5109327;28;20442;-82
2022/12/12 05:55:08;;;;;;;9.63;7.70;;;3.60;69.70;3.00;95607.00;;;;5110503;28;20472;-79
2022/12/12 05:57:35;;;;;;;9.80;8.20;;;3.60;69.70;3.00;95609.00;;;;5108869;28;20480;-80
2022/12/12 06:00:05;;;;;;;9.47;8.17;;;3.60;69.50;3.00;95617.00;;;;5106352;28;20464;-80
2022/12/12 06:02:32;;;;;;;9.70;8.37;;;3.50;69.40;3.00;95619.00;;;;5109921;28;20493;-81
2022/12/12 06:04:59;;;;;;;9.50;7.77;;;3.50;69.50;3.00;95617.00;;;;5109290;28;20540;-81
2022/12/12 06:07:26;;;;;;;10.43;8.53;;;3.50;70.30;3.00;95622.00;;;;5109687;28;20447;-82
2022/12/12 06:09:54;;;;;;;9.57;8.13;;;3.50;69.70;3.00;95624.00;;;;5112811;28;20892;-80
2022/12/12 06:12:21;;;;;;;9.60;8.30;;;3.50;69.70;3.00;95632.00;;;;5109928;28;20440;-81
2022/12/12 06:14:49;;;;;;;9.80;8.30;;;3.50;69.70;3.00;95617.00;;;;5110572;28;20880;-80
2022/12/12 06:17:17;;;;;;;9.70;8.30;;;3.50;69.60;3.10;95621.00;;;;5112269;28;21023;-80
2022/12/12 06:19:44;;;;;;;10.77;8.63;;;3.50;69.50;3.10;95626.00;;;;5111815;28;20440;-81
2022/12/12 06:22:14;;;;;;;12.40;8.33;;;3.60;69.60;3.10;95626.00;;;;5111643;28;20553;-81
2022/12/12 06:24:45;;;;;;;9.73;8.60;;;3.60;69.70;3.10;95629.00;;;;5109637;28;20625;-81
2022/12/12 06:27:12;;;;;;;12.47;8.93;;;3.60;69.50;3.10;95634.00;;;;5112460;28;20935;-81
2022/12/12 06:29:39;;;;;;;10.10;8.27;;;3.60;69.40;3.10;95630.00;;;;5111243;28;20601;-82
2022/12/12 06:32:06;;;;;;;9.50;8.17;;;3.60;69.60;3.10;95639.00;;;;5109123;28;20555;-83
2022/12/12 06:34:37;;;;;;;11.10;9.37;;;3.60;69.40;3.10;95633.00;;;;5112920;28;20582;-81
2022/12/12 06:37:07;;;;;;;11.70;8.73;;;3.60;69.30;3.10;95639.00;;;;5110863;28;20586;-81
2022/12/12 06:39:34;;;;;;;11.93;8.90;;;3.60;69.10;3.10;95642.00;;;;5109643;28;20908;-80
2022/12/12 06:42:04;;;;;;;11.00;9.57;;;3.60;69.10;3.00;95639.00;;;;5108410;28;20908;-84
2022/12/12 06:44:33;;;;;;;10.63;8.57;;;3.60;69.10;3.00;95632.00;;;;5112362;28;20508;-83
2022/12/12 06:47:00;;;;;;;10.33;8.87;;;3.60;68.90;3.00;95638.00;;;;5111451;28;20448;-83
2022/12/12 06:49:27;;;;;;;11.63;8.80;;;3.50;68.90;3.10;95635.00;;;;5109370;28;20857;-83
2022/12/12 06:51:58;;;;;;;9.63;8.63;;;3.50;68.90;3.10;95643.00;;;;5110218;28;20464;-84
2022/12/12 06:54:26;;;;;;;11.37;8.53;;;3.50;68.70;3.10;95641.00;;;;5112140;28;20943;-85
2022/12/12 06:56:53;;;;;;;10.30;9.20;;;3.50;68.70;3.00;95643.00;;;;5107491;28;20456;-84
2022/12/12 06:59:20;;;;;;;12.50;8.97;;;3.50;68.50;3.00;95650.00;;;;5112139;28;20448;-84
2022/12/12 07:01:47;;;;;;;10.47;8.53;;;3.50;68.50;3.00;95656.00;;;;5111363;28;20436;-85
2022/12/12 07:04:15;;;;;;;12.57;9.67;;;3.50;68.60;3.00;95657.00;;;;5110209;28;21235;-83
2022/12/12 07:06:42;;;;;;;9.53;8.50;;;3.50;68.70;3.00;95654.00;;;;5112370;28;20511;-84
2022/12/12 07:09:11;;;;;;;10.67;9.40;;;3.40;68.50;3.00;95655.00;;;;5106996;28;21267;-84
2022/12/12 07:11:40;;;;;;;10.57;9.37;;;3.40;68.30;3.00;95669.00;;;;5092746;28;20462;-83
2022/12/12 07:14:08;;;;;;;11.70;9.40;;;3.40;68.30;2.90;95669.00;;;;5110272;28;20469;-83
2022/12/12 07:16:35;;;;;;;12.33;9.43;;;3.40;68.20;2.90;95664.00;;;;5110918;28;20567;-83
2022/12/12 07:19:02;;;;;;;10.07;8.80;;;3.40;68.00;2.90;95667.00;;;;5109043;28;21330;-84
2022/12/12 07:21:30;;;;;;;9.63;8.63;;;3.40;67.90;2.80;95667.00;;;;5109009;28;20505;-84
2022/12/12 07:23:57;;;;;;;13.23;10.00;;;3.30;67.70;2.80;95673.00;;;;5109311;28;20460;-84
2022/12/12 07:26:26;;;;;;;12.33;9.10;;;3.30;67.70;2.80;95679.00;;;;5108691;28;20450;-84
2022/12/12 07:28:53;;;;;;;11.13;9.20;;;3.30;67.60;2.70;95681.00;;;;5108507;28;20472;-84
2022/12/12 07:31:24;;;;;;;9.70;8.67;;;3.20;67.70;2.70;95678.00;;;;5110403;28;20496;-84
2022/12/12 07:33:53;;;;;;;12.20;8.57;;;3.20;67.80;2.70;95685.00;;;;5108912;28;20491;-85
2022/12/12 07:36:20;;;;;;;11.57;8.83;;;3.20;67.80;2.70;95684.00;;;;5109092;28;20448;-84
2022/12/12 07:38:47;;;;;;;10.30;9.10;;;3.20;67.60;2.70;95683.00;;;;5108012;28;20484;-84
2022/12/12 07:41:19;;;;;;;11.03;9.10;;;3.10;67.60;2.70;95684.00;;;;5110023;28;21010;-84
2022/12/12 07:43:49;;;;;;;13.60;8.93;;;3.10;67.60;2.60;95690.00;;;;5109528;28;20547;-84
2022/12/12 07:46:20;;;;;;;11.17;8.20;;;3.10;67.60;2.60;95696.00;;;;5106869;28;20448;-84
2022/12/12 07:48:47;;;;;;;12.83;9.70;;;3.10;67.60;2.60;95686.00;;;;5108218;28;20520;-83
2022/12/12 07:51:15;;;;;;;11.37;8.53;;;3.10;67.80;2.60;95696.00;;;;5109163;28;20460;-84
2022/12/12 07:53:43;;;;;;;12.53;9.10;;;3.10;67.90;2.70;95696.00;;;;5107679;28;20479;-84
2022/12/12 07:56:13;;;;;;;11.77;9.10;;;3.10;68.00;2.70;95696.00;;;;5109632;28;20436;-84
2022/12/12 07:58:40;;;;;;;10.67;8.83;;;3.10;68.00;2.70;95700.00;;;;5109932;28;20819;-86
2022/12/12 08:01:14;;;;;;;9.83;8.47;;;3.10;68.20;2.80;95697.00;;;;5108562;28;20480;-84
2022/12/12 08:03:42;;;;;;;10.23;8.67;;;3.10;68.10;2.80;95704.00;;;;5105263;28;20483;-85
2022/12/12 08:06:10;;;;;;;11.00;9.17;;;3.10;68.10;2.80;95715.00;;;;5107114;28;20498;-84
2022/12/12 08:08:37;;;;;;;11.57;8.93;;;3.10;68.10;2.80;95719.00;;;;5108843;28;20528;-84
2022/12/12 08:11:09;;;;;;;11.03;8.87;;;3.10;68.10;2.80;95721.00;;;;5109285;28;20483;-84
2022/12/12 08:13:38;;;;;;;9.50;8.47;;;3.20;67.90;2.80;95725.00;;;;5108038;28;20532;-84
2022/12/12 08:16:14;;;;;;;9.53;7.83;;;3.20;68.00;2.80;95723.00;;;;5108763;28;20531;-84
2022/12/12 08:18:42;;;;;;;10.10;8.17;;;3.20;68.20;2.90;95726.00;;;;5107633;28;20487;-85
2022/12/12 08:21:11;;;;;;;11.30;8.87;;;3.20;68.20;2.90;95728.00;;;;5108375;28;20524;-84
2022/12/12 08:23:38;;;;;;;10.17;8.40;;;3.30;68.10;2.90;95732.00;;;;5107875;28;20602;-84
2022/12/12 08:26:07;;;;;;;8.97;7.70;;;3.30;68.10;2.90;95729.00;;;;5108541;28;20975;-83
2022/12/12 08:28:35;;;;;;;9.80;8.40;;;3.30;68.00;2.90;95746.00;;;;5109087;28;20456;-83
2022/12/12 08:31:03;;;;;;;13.40;9.13;;;3.30;67.90;2.90;95731.00;;;;5107630;28;20995;-85
2022/12/12 08:33:31;;;;;;;10.93;8.77;;;3.30;67.90;2.90;95741.00;;;;5110025;28;20475;-84
2022/12/12 08:35:58;;;;;;;10.37;8.80;;;3.30;67.90;3.00;95736.00;;;;5109777;28;20539;-84
2022/12/12 08:38:27;;;;;;;11.77;9.40;;;3.30;67.80;3.00;95738.00;;;;5108539;28;20536;-84
2022/12/12 08:40:54;;;;;;;9.57;8.40;;;3.30;67.70;3.00;95742.00;;;;5108331;28;20456;-84
2022/12/12 08:43:22;;;;;;;10.83;8.53;;;3.40;68.50;3.00;95740.00;;;;5115560;28;20483;-85
2022/12/12 08:45:49;;;;;;;9.00;8.07;;;3.40;67.80;3.00;95750.00;;;;5110647;28;20444;-85
2022/12/12 08:48:16;;;;;;;9.60;8.50;;;3.40;67.60;3.10;95745.00;;;;5118366;28;20443;-86
2022/12/12 08:50:45;;;;;;;9.17;8.27;;;3.40;67.60;3.10;95747.00;;;;5120436;28;21081;-85
2022/12/12 08:53:12;;;;;;;9.93;8.23;;;3.40;67.70;3.20;95748.00;;;;5119471;28;20456;-84
2022/12/12 08:55:40;;;;;;;10.97;8.70;;;3.50;67.90;3.20;95746.00;;;;5121019;28;20464;-84
2022/12/12 08:58:08;;;;;;;9.20;8.30;;;3.50;67.80;3.30;95753.00;;;;5117248;28;20504;-84
2022/12/12 09:00:35;;;;;;;10.97;8.73;;;3.50;67.80;3.30;95761.00;;;;5116387;28;20436;-84
2022/12/12 09:03:02;;;;;;;11.73;9.73;;;3.60;67.90;3.30;95754.00;;;;5113157;28;21010;-84
2022/12/12 09:05:29;;;;;;;11.43;9.10;;;3.60;67.60;3.30;95758.00;;;;5112140;28;20488;-86
2022/12/12 09:07:59;;;;;;;11.57;9.27;;;3.60;67.70;3.40;95764.00;;;;5111907;28;20448;-85
2022/12/12 09:10:27;;;;;;;12.83;10.07;;;3.60;67.90;3.40;95766.00;;;;5110391;28;20483;-86
2022/12/12 09:12:54;;;;;;;11.63;8.60;;;3.70;67.90;3.50;95773.00;;;;5112198;28;20463;-84
2022/12/12 09:15:22;;;;;;;11.67;9.13;;;3.70;67.90;3.50;95769.00;;;;5113708;28;20556;-82
2022/12/12 09:17:49;;;;;;;11.53;9.20;;;3.70;67.70;3.50;95779.00;;;;5115235;28;20536;-83
2022/12/12 09:20:17;;;;;;;12.90;10.27;;;3.70;67.30;3.50;95782.00;;;;5114030;28;20555;-85
2022/12/12 09:22:44;;;;;;;12.73;9.73;;;3.80;67.30;3.50;95775.00;;;;5112943;28;20492;-84
2022/12/12 09:25:13;;;;;;;13.67;9.50;;;3.80;67.20;3.50;95789.00;;;;5113378;28;20511;-83
2022/12/12 09:27:40;;;;;;;9.83;8.27;;;3.80;67.20;3.50;95787.00;;;;5113745;28;20511;-84
2022/12/12 09:30:09;;;;;;;10.47;8.20;;;3.90;67.20;3.60;95795.00;;;;5111579;28;20521;-83
2022/12/12 09:32:36;;;;;;;10.53;7.97;;;3.90;67.00;3.60;95793.00;;;;5110809;28;20503;-84
2022/12/12 09:35:04;;;;;;;9.77;7.97;;;3.90;66.90;3.70;95790.00;;;;5112386;28;20452;-84
2022/12/12 09:37:31;;;;;;;9.73;7.73;;;3.90;66.80;3.60;95793.00;;;;5110775;28;20559;-85
2022/12/12 09:39:58;;;;;;;10.03;8.43;;;3.90;66.70;3.70;95788.00;;;;5111950;28;20451;-86
2022/12/12 09:42:30;;;;;;;8.60;7.37;;;3.90;66.50;3.70;95788.00;;;;5111588;28;20533;-84
2022/12/12 09:45:02;;;;;;;8.37;7.33;;;4.00;66.70;3.80;95785.00;;;;5111735;28;21598;-84
2022/12/12 09:47:42;;;;;;;9.63;7.93;;;4.00;66.80;3.90;95781.00;;;;5111608;28;20480;-83
2022/12/12 09:50:21;;;;;;;8.90;7.53;;;4.10;67.20;4.00;95787.00;;;;5111174;28;20499;-84
2022/12/12 09:52:49;;;;;;;9.10;8.20;;;4.20;67.30;4.10;95781.00;;;;5109568;28;20532;-86
2022/12/12 09:55:40;;;;;;;8.93;8.03;;;4.30;67.30;4.10;95781.00;;;;5109811;28;20575;-84
2022/12/12 09:58:21;;;;;;;8.73;7.27;;;4.40;67.80;4.20;95787.00;;;;5105401;28;20535;-84
2022/12/12 10:00:57;;;;;;;9.60;7.93;;;4.50;67.30;4.40;95788.00;;;;5108760;28;20439;-85
2022/12/12 10:03:45;;;;;;;8.87;7.57;;;4.60;67.40;4.50;95797.00;;;;5110828;28;20380;-85
2022/12/12 10:06:16;;;;;;;8.63;7.07;;;4.70;67.10;4.60;95786.00;;;;5110553;28;20824;-84
2022/12/12 10:09:02;;;;;;;8.33;7.43;;;4.80;67.30;4.70;95795.00;;;;5109938;28;20290;-85
2022/12/12 10:11:53;;;;;;;7.50;6.73;;;5.00;67.10;4.80;95795.00;;;;5110586;28;20207;-84
2022/12/12 10:14:33;;;;;;;9.67;7.93;;;5.10;67.00;4.90;95794.00;;;;5109368;28;20590;-87
2022/12/12 10:17:03;;;;;;;9.20;7.47;;;5.20;66.50;4.90;95785.00;;;;5110004;28;20441;-86
2022/12/12 10:19:39;;;;;;;8.30;7.27;;;5.30;66.50;5.00;95781.00;;;;5108974;28;20534;-85
2022/12/12 10:22:19;;;;;;;7.80;6.93;;;5.40;65.90;5.00;95786.00;;;;5108310;28;20198;-85
2022/12/12 10:24:53;;;;;;;8.60;6.83;;;5.50;65.50;5.00;95786.00;;;;5109040;28;20257;-85
2022/12/12 10:27:22;;;;;;;8.53;7.20;;;5.50;65.60;5.10;95803.00;;;;5108739;28;20310;-85
2022/12/12 10:29:51;;;;;;;8.63;6.93;;;5.50;65.50;5.20;95799.00;;;;5108230;28;20281;-85
2022/12/12 10:32:36;;;;;;;10.23;7.80;;;5.60;65.30;5.20;95800.00;;;;5107490;28;20289;-85
2022/12/12 10:35:17;;;;;;;9.67;7.20;;;5.60;64.90;5.20;95798.00;;;;5107598;28;20214;-86
2022/12/12 10:38:10;;;;;;;7.97;6.30;;;5.60;64.60;5.20;95798.00;;;;5109139;28;20297;-85
2022/12/12 10:40:55;;;;;;;9.63;6.87;;;5.60;64.30;5.20;95801.00;;;;5107686;28;20279;-85
2022/12/12 10:43:29;;;;;;;8.10;7.23;;;5.60;64.10;5.10;95798.00;;;;5108117;28;20711;-86
2022/12/12 10:46:15;;;;;;;11.17;7.87;;;5.60;63.70;5.10;95791.00;;;;5107201;28;20190;-85
2022/12/12 10:48:44;;;;;;;10.00;7.70;;;5.50;63.20;5.00;95791.00;;;;5108011;28;20258;-85
2022/12/12 10:51:16;;;;;;;9.93;8.30;;;5.50;63.70;5.00;95787.00;;;;5106993;28;20232;-85
2022/12/12 10:53:44;;;;;;;11.50;8.93;;;5.40;63.50;4.90;95787.00;;;;5108333;28;20555;-85
2022/12/12 10:56:20;;;;;;;10.57;8.53;;;5.40;63.70;4.90;95786.00;;;;5108674;28;21613;-84
2022/12/12 10:58:55;;;;;;;12.23;8.83;;;5.40;63.60;4.80;95783.00;;;;5107780;28;20229;-84
2022/12/12 11:01:29;;;;;;;12.70;9.73;;;5.30;63.40;4.80;95784.00;;;;5107731;28;20261;-85
2022/12/12 11:03:59;;;;;;;10.93;8.80;;;5.30;63.40;4.80;95783.00;;;;5108189;28;20246;-85
2022/12/12 11:06:31;;;;;;;12.90;8.90;;;5.20;63.50;4.70;95783.00;;;;5107323;28;21034;-85
2022/12/12 11:09:07;;;;;;;13.30;9.07;;;5.20;63.50;4.70;95779.00;;;;5108240;28;20222;-85
2022/12/12 11:11:34;;;;;;;12.27;9.33;;;5.10;63.50;4.70;95775.00;;;;5106728;28;20760;-85
2022/12/12 11:14:04;;;;;;;12.57;9.07;;;5.10;63.60;4.60;95777.00;;;;5107171;28;20479;-84
2022/12/12 11:16:43;;;;;;;14.00;9.97;;;5.10;63.70;4.60;95781.00;;;;5106422;28;20293;-85
2022/12/12 11:19:19;;;;;;;11.73;9.13;;;5.00;63.60;4.50;95775.00;;;;5103400;28;20202;-85
2022/12/12 11:21:48;;;;;;;15.13;10.67;;;5.00;63.70;4.50;95774.00;;;;5106392;28;20205;-85
2022/12/12 11:24:19;;;;;;;11.10;8.63;;;5.00;64.00;4.50;95770.00;;;;5107991;28;20230;-85
2022/12/12 11:26:52;;;;;;;11.97;8.87;;;4.90;63.90;4.50;95777.00;;;;5108158;28;20666;-86
2022/12/12 11:29:34;;;;;;;10.30;8.33;;;4.90;63.90;4.50;95774.00;;;;5108807;28;20527;-85
2022/12/12 11:32:04;;;;;;;12.43;8.87;;;4.90;64.10;4.50;95777.00;;;;5107533;28;20480;-85
2022/12/12 11:34:35;;;;;;;11.47;9.17;;;4.90;64.30;4.50;95771.00;;;;5106543;28;20532;-85
2022/12/12 11:37:03;;;;;;;11.23;8.13;;;4.90;64.10;4.40;95775.00;;;;5108918;28;20531;-85